sensor_id;sensor_type;location;lat;lon;timestamp;temperature;humidity
32877;DHT22;19226;51.600;8.034;2023-10-31T00:01:43;14.20;99.90
32877;DHT22;19226;51.600;8.034;2023-10-31T00:04:28;14.20;99.90
32877;DHT22;19226;51.600;8.034;2023-10-31T00:07:12;14.10;99.90
32877;DHT22;19226;51.600;8.034;2023-10-31T00:09:57;14.20;99.90
32877;DHT22;19226;51.600;8.034;2023-10-31T00:12:42;14.10;99.90
32877;DHT22;19226;51.600;8.034;2023-10-31T00:15:27;14.10;99.90
32877;DHT22;19226;51.600;8.034;2023-10-31T00:18:13;14.10;99.90
32877;DHT22;19226;51.600;8.034;2023-10-31T00:20:57;14.10;99.90
32877;DHT22;19226;51.600;8.034;2023-10-31T00:23:43;14.10;99.90
32877;DHT22;19226;51.600;8.034;2023-10-31T00:26:28;14.00;99.90
32877;DHT22;19226;51.600;8.034;2023-10-31T00:29:12;14.00;99.90
32877;DHT22;19226;51.600;8.034;2023-10-31T00:31:57;14.00;99.90
32877;DHT22;19226;51.600;8.034;2023-10-31T00:34:42;14.00;99.90
32877;DHT22;19226;51.600;8.034;2023-10-31T00:37:26;14.00;99.90
32877;DHT22;19226;51.600;8.034;2023-10-31T00:40:11;14.00;99.90
32877;DHT22;19226;51.600;8.034;2023-10-31T00:42:56;14.00;99.90
32877;DHT22;19226;51.600;8.034;2023-10-31T00:45:42;14.00;99.90
32877;DHT22;19226;51.600;8.034;2023-10-31T00:48:26;14.00;99.90
32877;DHT22;19226;51.600;8.034;2023-10-31T00:51:11;14.00;99.90
32877;DHT22;19226;51.600;8.034;2023-10-31T00:53:56;13.90;99.90
32877;DHT22;19226;51.600;8.034;2023-10-31T00:56:40;13.80;99.90
32877;DHT22;19226;51.600;8.034;2023-10-31T00:59:25;13.70;99.90
32877;DHT22;19226;51.600;8.034;2023-10-31T01:02:12;13.70;99.90
32877;DHT22;19226;51.600;8.034;2023-10-31T01:04:57;13.60;99.90
32877;DHT22;19226;51.600;8.034;2023-10-31T01:07:41;13.50;99.90
32877;DHT22;19226;51.600;8.034;2023-10-31T01:10:26;13.40;99.90
32877;DHT22;19226;51.600;8.034;2023-10-31T01:13:11;13.40;99.90
32877;DHT22;19226;51.600;8.034;2023-10-31T01:15:55;13.20;99.90
32877;DHT22;19226;51.600;8.034;2023-10-31T01:18:40;13.20;99.90
32877;DHT22;19226;51.600;8.034;2023-10-31T01:21:25;13.10;99.90
32877;DHT22;19226;51.600;8.034;2023-10-31T01:24:11;13.10;99.90
32877;DHT22;19226;51.600;8.034;2023-10-31T01:26:55;13.00;99.90
32877;DHT22;19226;51.600;8.034;2023-10-31T01:29:40;12.90;99.90
32877;DHT22;19226;51.600;8.034;2023-10-31T01:32:24;12.90;99.90
32877;DHT22;19226;51.600;8.034;2023-10-31T01:35:09;12.80;99.90
32877;DHT22;19226;51.600;8.034;2023-10-31T01:37:53;12.80;99.90
32877;DHT22;19226;51.600;8.034;2023-10-31T01:40:39;12.80;99.90
32877;DHT22;19226;51.600;8.034;2023-10-31T01:43:37;12.80;99.90
32877;DHT22;19226;51.600;8.034;2023-10-31T01:46:21;12.70;99.90
32877;DHT22;19226;51.600;8.034;2023-10-31T01:49:06;12.70;99.90
32877;DHT22;19226;51.600;8.034;2023-10-31T01:51:50;12.70;99.90
32877;DHT22;19226;51.600;8.034;2023-10-31T01:54:35;12.60;99.90
32877;DHT22;19226;51.600;8.034;2023-10-31T01:57:21;12.60;99.90
32877;DHT22;19226;51.600;8.034;2023-10-31T02:00:07;12.50;99.90
32877;DHT22;19226;51.600;8.034;2023-10-31T02:02:57;12.50;99.90
32877;DHT22;19226;51.600;8.034;2023-10-31T02:05:42;12.60;99.90
32877;DHT22;19226;51.600;8.034;2023-10-31T02:08:28;12.50;99.90
32877;DHT22;19226;51.600;8.034;2023-10-31T02:11:13;12.50;99.90
32877;DHT22;19226;51.600;8.034;2023-10-31T02:13:57;12.40;99.90
32877;DHT22;19226;51.600;8.034;2023-10-31T02:16:42;12.40;99.90
32877;DHT22;19226;51.600;8.034;2023-10-31T02:19:27;12.40;99.90
32877;DHT22;19226;51.600;8.034;2023-10-31T02:22:11;12.30;99.90
32877;DHT22;19226;51.600;8.034;2023-10-31T02:24:56;12.30;99.90
32877;DHT22;19226;51.600;8.034;2023-10-31T02:27:40;12.30;99.90
32877;DHT22;19226;51.600;8.034;2023-10-31T02:30:27;12.20;99.90
32877;DHT22;19226;51.600;8.034;2023-10-31T02:33:11;12.20;99.90
32877;DHT22;19226;51.600;8.034;2023-10-31T02:35:56;12.20;99.90
32877;DHT22;19226;51.600;8.034;2023-10-31T02:38:41;12.20;99.90
32877;DHT22;19226;51.600;8.034;2023-10-31T02:41:25;12.20;99.90
32877;DHT22;19226;51.600;8.034;2023-10-31T02:44:10;12.10;99.90
32877;DHT22;19226;51.600;8.034;2023-10-31T02:46:56;12.10;99.90
32877;DHT22;19226;51.600;8.034;2023-10-31T02:49:41;12.10;99.90
32877;DHT22;19226;51.600;8.034;2023-10-31T02:52:25;12.10;99.90
32877;DHT22;19226;51.600;8.034;2023-10-31T02:55:10;12.10;99.90
32877;DHT22;19226;51.600;8.034;2023-10-31T02:57:55;12.10;99.90
32877;DHT22;19226;51.600;8.034;2023-10-31T03:00:39;12.10;99.90
32877;DHT22;19226;51.600;8.034;2023-10-31T03:03:24;12.10;99.90
32877;DHT22;19226;51.600;8.034;2023-10-31T03:06:08;12.10;99.90
32877;DHT22;19226;51.600;8.034;2023-10-31T03:08:53;12.10;99.90
32877;DHT22;19226;51.600;8.034;2023-10-31T03:11:38;12.00;99.90
32877;DHT22;19226;51.600;8.034;2023-10-31T03:14:22;12.00;99.90
32877;DHT22;19226;51.600;8.034;2023-10-31T03:17:06;12.00;99.90
32877;DHT22;19226;51.600;8.034;2023-10-31T03:19:51;12.10;99.90
32877;DHT22;19226;51.600;8.034;2023-10-31T03:22:35;12.10;99.90
32877;DHT22;19226;51.600;8.034;2023-10-31T03:25:20;12.10;99.90
32877;DHT22;19226;51.600;8.034;2023-10-31T03:28:18;12.10;99.90
32877;DHT22;19226;51.600;8.034;2023-10-31T03:31:03;12.10;99.90
32877;DHT22;19226;51.600;8.034;2023-10-31T03:33:49;12.00;99.90
32877;DHT22;19226;51.600;8.034;2023-10-31T03:36:33;12.00;99.90
32877;DHT22;19226;51.600;8.034;2023-10-31T03:39:19;11.90;99.90
32877;DHT22;19226;51.600;8.034;2023-10-31T03:42:03;11.90;99.90
32877;DHT22;19226;51.600;8.034;2023-10-31T03:44:50;11.90;99.90
32877;DHT22;19226;51.600;8.034;2023-10-31T03:47:35;11.80;99.90
32877;DHT22;19226;51.600;8.034;2023-10-31T03:50:19;11.80;99.90
32877;DHT22;19226;51.600;8.034;2023-10-31T03:53:04;11.80;99.90
32877;DHT22;19226;51.600;8.034;2023-10-31T03:55:49;11.70;99.90
32877;DHT22;19226;51.600;8.034;2023-10-31T03:58:34;11.60;99.90
32877;DHT22;19226;51.600;8.034;2023-10-31T04:01:18;11.60;99.90
32877;DHT22;19226;51.600;8.034;2023-10-31T04:04:03;11.60;99.90
32877;DHT22;19226;51.600;8.034;2023-10-31T04:06:48;11.60;99.90
32877;DHT22;19226;51.600;8.034;2023-10-31T04:09:33;11.60;99.90
32877;DHT22;19226;51.600;8.034;2023-10-31T04:12:17;11.60;99.90
32877;DHT22;19226;51.600;8.034;2023-10-31T04:15:02;11.60;99.90
32877;DHT22;19226;51.600;8.034;2023-10-31T04:17:47;11.60;99.90
32877;DHT22;19226;51.600;8.034;2023-10-31T04:20:31;11.60;99.90
32877;DHT22;19226;51.600;8.034;2023-10-31T04:23:16;11.60;99.90
32877;DHT22;19226;51.600;8.034;2023-10-31T04:26:01;11.60;99.90
32877;DHT22;19226;51.600;8.034;2023-10-31T04:28:45;11.60;99.90
32877;DHT22;19226;51.600;8.034;2023-10-31T04:31:36;11.60;99.90
32877;DHT22;19226;51.600;8.034;2023-10-31T04:34:21;11.60;99.90
32877;DHT22;19226;51.600;8.034;2023-10-31T04:37:06;11.60;99.90
32877;DHT22;19226;51.600;8.034;2023-10-31T04:39:51;11.60;99.90
32877;DHT22;19226;51.600;8.034;2023-10-31T04:42:38;11.60;99.90
32877;DHT22;19226;51.600;8.034;2023-10-31T04:45:26;11.60;99.90
32877;DHT22;19226;51.600;8.034;2023-10-31T04:48:10;11.70;99.90
32877;DHT22;19226;51.600;8.034;2023-10-31T04:50:55;11.60;99.90
32877;DHT22;19226;51.600;8.034;2023-10-31T04:53:40;11.60;99.90
32877;DHT22;19226;51.600;8.034;2023-10-31T04:56:25;11.60;99.90
32877;DHT22;19226;51.600;8.034;2023-10-31T04:59:10;11.60;99.90
32877;DHT22;19226;51.600;8.034;2023-10-31T05:01:57;11.70;99.90
32877;DHT22;19226;51.600;8.034;2023-10-31T05:04:43;11.70;99.90
32877;DHT22;19226;51.600;8.034;2023-10-31T05:07:29;11.60;99.90
32877;DHT22;19226;51.600;8.034;2023-10-31T05:10:14;11.60;99.90
32877;DHT22;19226;51.600;8.034;2023-10-31T05:13:00;11.60;99.90
32877;DHT22;19226;51.600;8.034;2023-10-31T05:15:46;11.60;99.90
32877;DHT22;19226;51.600;8.034;2023-10-31T05:18:31;11.60;99.90
32877;DHT22;19226;51.600;8.034;2023-10-31T05:21:19;11.60;99.90
32877;DHT22;19226;51.600;8.034;2023-10-31T05:24:05;11.60;99.90
32877;DHT22;19226;51.600;8.034;2023-10-31T05:26:49;11.60;99.90
32877;DHT22;19226;51.600;8.034;2023-10-31T05:29:34;11.60;99.90
32877;DHT22;19226;51.600;8.034;2023-10-31T05:32:19;11.60;99.90
32877;DHT22;19226;51.600;8.034;2023-10-31T05:35:04;11.60;99.90
32877;DHT22;19226;51.600;8.034;2023-10-31T05:37:49;11.60;99.90
32877;DHT22;19226;51.600;8.034;2023-10-31T05:40:33;11.50;99.90
32877;DHT22;19226;51.600;8.034;2023-10-31T05:43:19;11.50;99.90
32877;DHT22;19226;51.600;8.034;2023-10-31T05:46:04;11.50;99.90
32877;DHT22;19226;51.600;8.034;2023-10-31T05:48:48;11.50;99.90
32877;DHT22;19226;51.600;8.034;2023-10-31T05:51:33;11.50;99.90
32877;DHT22;19226;51.600;8.034;2023-10-31T05:54:19;11.50;99.90
32877;DHT22;19226;51.600;8.034;2023-10-31T05:57:04;11.50;99.90
32877;DHT22;19226;51.600;8.034;2023-10-31T05:59:49;11.50;99.90
32877;DHT22;19226;51.600;8.034;2023-10-31T06:02:33;11.50;99.90
32877;DHT22;19226;51.600;8.034;2023-10-31T06:05:18;11.50;99.90
32877;DHT22;19226;51.600;8.034;2023-10-31T06:08:02;11.50;99.90
32877;DHT22;19226;51.600;8.034;2023-10-31T06:10:47;11.50;99.90
32877;DHT22;19226;51.600;8.034;2023-10-31T06:13:33;11.50;99.90
32877;DHT22;19226;51.600;8.034;2023-10-31T06:16:18;11.60;99.90
32877;DHT22;19226;51.600;8.034;2023-10-31T06:19:02;11.50;99.90
32877;DHT22;19226;51.600;8.034;2023-10-31T06:21:47;11.50;99.90
32877;DHT22;19226;51.600;8.034;2023-10-31T06:24:32;11.50;99.90
32877;DHT22;19226;51.600;8.034;2023-10-31T06:27:17;11.50;99.90
32877;DHT22;19226;51.600;8.034;2023-10-31T06:30:01;11.50;99.90
32877;DHT22;19226;51.600;8.034;2023-10-31T06:32:47;11.50;99.90
32877;DHT22;19226;51.600;8.034;2023-10-31T06:35:31;11.50;99.90
32877;DHT22;19226;51.600;8.034;2023-10-31T06:38:15;11.50;99.90
32877;DHT22;19226;51.600;8.034;2023-10-31T06:41:00;11.50;99.90
32877;DHT22;19226;51.600;8.034;2023-10-31T06:43:45;11.40;99.90
32877;DHT22;19226;51.600;8.034;2023-10-31T06:46:29;11.40;99.90
32877;DHT22;19226;51.600;8.034;2023-10-31T06:49:14;11.40;99.90
32877;DHT22;19226;51.600;8.034;2023-10-31T06:51:58;11.40;99.90
32877;DHT22;19226;51.600;8.034;2023-10-31T06:54:43;11.40;99.90
32877;DHT22;19226;51.600;8.034;2023-10-31T06:57:27;11.40;99.90
32877;DHT22;19226;51.600;8.034;2023-10-31T07:00:12;11.40;99.90
32877;DHT22;19226;51.600;8.034;2023-10-31T07:02:57;11.30;99.90
32877;DHT22;19226;51.600;8.034;2023-10-31T07:05:42;11.40;99.90
32877;DHT22;19226;51.600;8.034;2023-10-31T07:08:27;11.40;99.90
32877;DHT22;19226;51.600;8.034;2023-10-31T07:11:14;11.40;99.90
32877;DHT22;19226;51.600;8.034;2023-10-31T07:13:58;11.40;99.90
32877;DHT22;19226;51.600;8.034;2023-10-31T07:16:43;11.40;99.90
32877;DHT22;19226;51.600;8.034;2023-10-31T07:19:28;11.40;99.90
32877;DHT22;19226;51.600;8.034;2023-10-31T07:22:12;11.40;99.90
32877;DHT22;19226;51.600;8.034;2023-10-31T07:24:57;11.40;99.90
32877;DHT22;19226;51.600;8.034;2023-10-31T07:27:43;11.40;99.90
32877;DHT22;19226;51.600;8.034;2023-10-31T07:30:28;11.50;99.90
32877;DHT22;19226;51.600;8.034;2023-10-31T07:33:13;11.50;99.90
32877;DHT22;19226;51.600;8.034;2023-10-31T07:35:58;11.50;99.90
32877;DHT22;19226;51.600;8.034;2023-10-31T07:38:42;11.50;99.90
32877;DHT22;19226;51.600;8.034;2023-10-31T07:41:27;11.60;99.90
32877;DHT22;19226;51.600;8.034;2023-10-31T07:44:13;11.60;99.90
32877;DHT22;19226;51.600;8.034;2023-10-31T07:46:57;11.50;99.90
32877;DHT22;19226;51.600;8.034;2023-10-31T07:49:42;11.60;99.90
32877;DHT22;19226;51.600;8.034;2023-10-31T07:52:26;11.60;99.90
32877;DHT22;19226;51.600;8.034;2023-10-31T07:55:12;11.70;99.90
32877;DHT22;19226;51.600;8.034;2023-10-31T07:57:56;11.70;99.90
32877;DHT22;19226;51.600;8.034;2023-10-31T08:00:41;11.80;99.90
32877;DHT22;19226;51.600;8.034;2023-10-31T08:03:25;11.80;99.90
32877;DHT22;19226;51.600;8.034;2023-10-31T08:06:11;11.80;99.90
32877;DHT22;19226;51.600;8.034;2023-10-31T08:08:55;11.80;99.90
32877;DHT22;19226;51.600;8.034;2023-10-31T08:11:40;11.80;99.90
32877;DHT22;19226;51.600;8.034;2023-10-31T08:14:24;11.80;99.90
32877;DHT22;19226;51.600;8.034;2023-10-31T08:17:09;11.80;99.90
32877;DHT22;19226;51.600;8.034;2023-10-31T08:19:53;11.80;99.90
32877;DHT22;19226;51.600;8.034;2023-10-31T08:22:39;11.80;99.90
32877;DHT22;19226;51.600;8.034;2023-10-31T08:25:23;11.90;99.90
32877;DHT22;19226;51.600;8.034;2023-10-31T08:28:08;11.90;99.90
32877;DHT22;19226;51.600;8.034;2023-10-31T08:30:52;11.90;99.90
32877;DHT22;19226;51.600;8.034;2023-10-31T08:33:37;11.90;99.90
32877;DHT22;19226;51.600;8.034;2023-10-31T08:36:21;11.90;99.90
32877;DHT22;19226;51.600;8.034;2023-10-31T08:39:06;12.00;99.90
32877;DHT22;19226;51.600;8.034;2023-10-31T08:41:55;12.00;99.90
32877;DHT22;19226;51.600;8.034;2023-10-31T08:44:40;12.00;99.90
32877;DHT22;19226;51.600;8.034;2023-10-31T08:47:25;12.00;99.90
32877;DHT22;19226;51.600;8.034;2023-10-31T08:50:09;12.10;99.90
32877;DHT22;19226;51.600;8.034;2023-10-31T08:52:55;12.10;99.90
32877;DHT22;19226;51.600;8.034;2023-10-31T08:55:40;12.10;99.90
32877;DHT22;19226;51.600;8.034;2023-10-31T08:58:28;12.10;99.90
32877;DHT22;19226;51.600;8.034;2023-10-31T09:01:13;12.10;99.90
32877;DHT22;19226;51.600;8.034;2023-10-31T09:03:58;12.10;99.90
32877;DHT22;19226;51.600;8.034;2023-10-31T09:06:42;12.10;99.90
32877;DHT22;19226;51.600;8.034;2023-10-31T09:09:27;12.10;99.90
32877;DHT22;19226;51.600;8.034;2023-10-31T09:12:11;12.10;99.90
32877;DHT22;19226;51.600;8.034;2023-10-31T09:14:57;12.10;99.90
32877;DHT22;19226;51.600;8.034;2023-10-31T09:17:42;12.10;99.90
32877;DHT22;19226;51.600;8.034;2023-10-31T09:20:27;12.10;99.90
32877;DHT22;19226;51.600;8.034;2023-10-31T09:23:13;12.10;99.90
32877;DHT22;19226;51.600;8.034;2023-10-31T09:25:58;12.20;99.90
32877;DHT22;19226;51.600;8.034;2023-10-31T09:28:43;12.20;99.90
32877;DHT22;19226;51.600;8.034;2023-10-31T09:31:33;12.30;99.90
32877;DHT22;19226;51.600;8.034;2023-10-31T09:34:18;12.30;99.90
32877;DHT22;19226;51.600;8.034;2023-10-31T09:37:02;12.30;99.90
32877;DHT22;19226;51.600;8.034;2023-10-31T09:39:47;12.30;99.90
32877;DHT22;19226;51.600;8.034;2023-10-31T09:42:32;12.30;99.90
32877;DHT22;19226;51.600;8.034;2023-10-31T09:45:17;12.30;99.90
32877;DHT22;19226;51.600;8.034;2023-10-31T09:48:02;12.30;99.90
32877;DHT22;19226;51.600;8.034;2023-10-31T09:50:47;12.30;99.90
32877;DHT22;19226;51.600;8.034;2023-10-31T09:53:34;12.30;99.90
32877;DHT22;19226;51.600;8.034;2023-10-31T09:56:21;12.30;99.90
32877;DHT22;19226;51.600;8.034;2023-10-31T09:59:06;12.30;99.90
32877;DHT22;19226;51.600;8.034;2023-10-31T10:01:51;12.30;99.90
32877;DHT22;19226;51.600;8.034;2023-10-31T10:04:37;12.30;99.90
32877;DHT22;19226;51.600;8.034;2023-10-31T10:07:21;12.30;99.90
32877;DHT22;19226;51.600;8.034;2023-10-31T10:10:10;12.30;99.90
32877;DHT22;19226;51.600;8.034;2023-10-31T10:12:55;12.20;99.90
32877;DHT22;19226;51.600;8.034;2023-10-31T10:15:50;12.20;99.90
32877;DHT22;19226;51.600;8.034;2023-10-31T10:18:39;12.30;99.90
32877;DHT22;19226;51.600;8.034;2023-10-31T10:21:24;12.30;99.90
32877;DHT22;19226;51.600;8.034;2023-10-31T10:24:08;12.30;99.90
32877;DHT22;19226;51.600;8.034;2023-10-31T10:26:53;12.30;99.90
32877;DHT22;19226;51.600;8.034;2023-10-31T10:29:38;12.30;99.90
32877;DHT22;19226;51.600;8.034;2023-10-31T10:32:23;12.40;99.90
32877;DHT22;19226;51.600;8.034;2023-10-31T10:35:07;12.40;99.90
32877;DHT22;19226;51.600;8.034;2023-10-31T10:37:54;12.40;99.90
32877;DHT22;19226;51.600;8.034;2023-10-31T10:40:44;12.40;99.90
32877;DHT22;19226;51.600;8.034;2023-10-31T10:43:31;12.50;99.90
32877;DHT22;19226;51.600;8.034;2023-10-31T10:46:20;12.50;99.90
32877;DHT22;19226;51.600;8.034;2023-10-31T10:49:07;12.50;99.90
32877;DHT22;19226;51.600;8.034;2023-10-31T10:52:44;12.60;99.90
32877;DHT22;19226;51.600;8.034;2023-10-31T10:55:25;12.60;99.90
32877;DHT22;19226;51.600;8.034;2023-10-31T10:58:34;12.60;99.90
32877;DHT22;19226;51.600;8.034;2023-10-31T11:01:21;12.60;99.90
32877;DHT22;19226;51.600;8.034;2023-10-31T11:04:07;12.60;99.90
32877;DHT22;19226;51.600;8.034;2023-10-31T11:06:52;12.60;99.90
32877;DHT22;19226;51.600;8.034;2023-10-31T11:09:40;12.60;99.90
32877;DHT22;19226;51.600;8.034;2023-10-31T11:12:32;12.60;99.90
32877;DHT22;19226;51.600;8.034;2023-10-31T11:15:17;12.50;99.90
32877;DHT22;19226;51.600;8.034;2023-10-31T11:18:02;12.60;99.90
32877;DHT22;19226;51.600;8.034;2023-10-31T11:20:48;12.60;99.90
32877;DHT22;19226;51.600;8.034;2023-10-31T11:23:32;12.60;99.90
32877;DHT22;19226;51.600;8.034;2023-10-31T11:26:17;12.60;99.90
32877;DHT22;19226;51.600;8.034;2023-10-31T11:29:05;12.60;99.90
32877;DHT22;19226;51.600;8.034;2023-10-31T11:31:50;12.70;99.90
32877;DHT22;19226;51.600;8.034;2023-10-31T11:34:39;12.60;99.90
32877;DHT22;19226;51.600;8.034;2023-10-31T11:37:32;12.60;99.90
32877;DHT22;19226;51.600;8.034;2023-10-31T11:40:24;12.70;99.90
32877;DHT22;19226;51.600;8.034;2023-10-31T11:43:09;12.80;99.90
32877;DHT22;19226;51.600;8.034;2023-10-31T11:45:57;12.80;99.90
32877;DHT22;19226;51.600;8.034;2023-10-31T11:48:49;12.90;99.90
32877;DHT22;19226;51.600;8.034;2023-10-31T11:51:35;12.90;99.90
32877;DHT22;19226;51.600;8.034;2023-10-31T11:54:20;12.90;99.90
32877;DHT22;19226;51.600;8.034;2023-10-31T11:57:05;13.00;99.90
32877;DHT22;19226;51.600;8.034;2023-10-31T11:59:49;13.10;99.90
32877;DHT22;19226;51.600;8.034;2023-10-31T12:02:33;13.10;99.90
32877;DHT22;19226;51.600;8.034;2023-10-31T12:05:18;13.20;99.90
32877;DHT22;19226;51.600;8.034;2023-10-31T12:08:02;13.20;99.90
32877;DHT22;19226;51.600;8.034;2023-10-31T12:10:47;13.20;99.90
32877;DHT22;19226;51.600;8.034;2023-10-31T12:13:32;13.20;99.90
32877;DHT22;19226;51.600;8.034;2023-10-31T12:16:19;13.20;99.90
32877;DHT22;19226;51.600;8.034;2023-10-31T12:19:07;13.20;99.90
32877;DHT22;19226;51.600;8.034;2023-10-31T12:21:51;13.30;99.90
32877;DHT22;19226;51.600;8.034;2023-10-31T12:24:36;13.30;99.90
32877;DHT22;19226;51.600;8.034;2023-10-31T12:27:20;13.30;99.90
32877;DHT22;19226;51.600;8.034;2023-10-31T12:30:05;13.30;99.90
32877;DHT22;19226;51.600;8.034;2023-10-31T12:32:55;13.30;99.90
32877;DHT22;19226;51.600;8.034;2023-10-31T12:35:41;13.30;99.90
32877;DHT22;19226;51.600;8.034;2023-10-31T12:38:27;13.30;99.90
32877;DHT22;19226;51.600;8.034;2023-10-31T12:41:12;13.40;99.90
32877;DHT22;19226;51.600;8.034;2023-10-31T12:43:57;13.40;99.90
32877;DHT22;19226;51.600;8.034;2023-10-31T12:46:41;13.40;99.90
32877;DHT22;19226;51.600;8.034;2023-10-31T12:49:26;13.40;99.90
32877;DHT22;19226;51.600;8.034;2023-10-31T12:52:12;13.40;99.90
32877;DHT22;19226;51.600;8.034;2023-10-31T12:54:56;13.30;99.90
32877;DHT22;19226;51.600;8.034;2023-10-31T12:57:41;13.40;99.90
32877;DHT22;19226;51.600;8.034;2023-10-31T13:00:34;13.40;99.90
32877;DHT22;19226;51.600;8.034;2023-10-31T13:03:19;13.50;99.90
32877;DHT22;19226;51.600;8.034;2023-10-31T13:06:16;13.60;99.90
32877;DHT22;19226;51.600;8.034;2023-10-31T13:09:01;13.60;99.90
32877;DHT22;19226;51.600;8.034;2023-10-31T13:11:47;13.70;99.90
32877;DHT22;19226;51.600;8.034;2023-10-31T13:14:32;13.70;99.90
32877;DHT22;19226;51.600;8.034;2023-10-31T13:17:17;13.80;99.90
32877;DHT22;19226;51.600;8.034;2023-10-31T13:20:04;13.90;99.90
32877;DHT22;19226;51.600;8.034;2023-10-31T13:22:50;13.90;99.90
32877;DHT22;19226;51.600;8.034;2023-10-31T13:25:35;14.00;99.90
32877;DHT22;19226;51.600;8.034;2023-10-31T13:28:19;14.10;99.90
32877;DHT22;19226;51.600;8.034;2023-10-31T13:31:04;14.20;99.90
32877;DHT22;19226;51.600;8.034;2023-10-31T13:33:48;14.30;99.90
32877;DHT22;19226;51.600;8.034;2023-10-31T13:36:33;14.40;99.90
32877;DHT22;19226;51.600;8.034;2023-10-31T13:39:17;14.50;99.90
32877;DHT22;19226;51.600;8.034;2023-10-31T13:42:02;14.50;99.90
32877;DHT22;19226;51.600;8.034;2023-10-31T13:44:46;14.50;99.90
32877;DHT22;19226;51.600;8.034;2023-10-31T13:47:32;14.50;99.90
32877;DHT22;19226;51.600;8.034;2023-10-31T13:50:17;14.50;99.90
32877;DHT22;19226;51.600;8.034;2023-10-31T13:53:01;14.50;99.90
32877;DHT22;19226;51.600;8.034;2023-10-31T13:55:48;14.60;99.90
32877;DHT22;19226;51.600;8.034;2023-10-31T13:58:33;14.70;99.90
32877;DHT22;19226;51.600;8.034;2023-10-31T14:01:18;14.90;99.90
32877;DHT22;19226;51.600;8.034;2023-10-31T14:04:09;15.00;99.90
32877;DHT22;19226;51.600;8.034;2023-10-31T14:06:54;15.20;99.90
32877;DHT22;19226;51.600;8.034;2023-10-31T14:09:39;15.30;99.90
32877;DHT22;19226;51.600;8.034;2023-10-31T14:12:26;15.50;99.90
32877;DHT22;19226;51.600;8.034;2023-10-31T14:15:12;15.60;99.90
32877;DHT22;19226;51.600;8.034;2023-10-31T14:17:58;15.80;99.90
32877;DHT22;19226;51.600;8.034;2023-10-31T14:20:42;15.70;99.90
32877;DHT22;19226;51.600;8.034;2023-10-31T14:23:27;15.80;99.90
32877;DHT22;19226;51.600;8.034;2023-10-31T14:26:12;15.80;99.90
32877;DHT22;19226;51.600;8.034;2023-10-31T14:28:57;15.90;99.90
32877;DHT22;19226;51.600;8.034;2023-10-31T14:31:42;16.00;99.90
32877;DHT22;19226;51.600;8.034;2023-10-31T14:34:26;16.10;99.90
32877;DHT22;19226;51.600;8.034;2023-10-31T14:37:11;16.30;99.90
32877;DHT22;19226;51.600;8.034;2023-10-31T14:39:55;16.20;99.90
32877;DHT22;19226;51.600;8.034;2023-10-31T14:42:40;16.40;99.90
32877;DHT22;19226;51.600;8.034;2023-10-31T14:45:24;16.30;99.90
32877;DHT22;19226;51.600;8.034;2023-10-31T14:48:09;16.20;99.90
32877;DHT22;19226;51.600;8.034;2023-10-31T14:50:54;16.40;99.90
32877;DHT22;19226;51.600;8.034;2023-10-31T14:53:38;16.20;99.90
32877;DHT22;19226;51.600;8.034;2023-10-31T14:56:23;16.10;99.90
32877;DHT22;19226;51.600;8.034;2023-10-31T14:59:08;16.00;99.90
32877;DHT22;19226;51.600;8.034;2023-10-31T15:01:52;16.00;99.90
32877;DHT22;19226;51.600;8.034;2023-10-31T15:04:37;15.90;99.90
32877;DHT22;19226;51.600;8.034;2023-10-31T15:07:26;15.80;99.90
32877;DHT22;19226;51.600;8.034;2023-10-31T15:10:13;15.70;99.90
32877;DHT22;19226;51.600;8.034;2023-10-31T15:12:58;15.70;99.90
32877;DHT22;19226;51.600;8.034;2023-10-31T15:15:43;15.80;99.90
32877;DHT22;19226;51.600;8.034;2023-10-31T15:18:28;15.80;99.90
32877;DHT22;19226;51.600;8.034;2023-10-31T15:21:12;15.70;99.90
32877;DHT22;19226;51.600;8.034;2023-10-31T15:23:57;15.50;99.90
32877;DHT22;19226;51.600;8.034;2023-10-31T15:26:42;15.30;99.90
32877;DHT22;19226;51.600;8.034;2023-10-31T15:29:26;15.20;99.90
32877;DHT22;19226;51.600;8.034;2023-10-31T15:32:11;15.20;99.90
32877;DHT22;19226;51.600;8.034;2023-10-31T15:34:55;15.10;99.90
32877;DHT22;19226;51.600;8.034;2023-10-31T15:37:40;15.00;99.90
32877;DHT22;19226;51.600;8.034;2023-10-31T15:40:24;15.00;99.90
32877;DHT22;19226;51.600;8.034;2023-10-31T15:43:09;14.90;99.90
32877;DHT22;19226;51.600;8.034;2023-10-31T15:45:54;14.80;99.90
32877;DHT22;19226;51.600;8.034;2023-10-31T15:48:38;14.60;99.90
32877;DHT22;19226;51.600;8.034;2023-10-31T15:51:23;14.50;99.90
32877;DHT22;19226;51.600;8.034;2023-10-31T15:54:07;14.40;99.90
32877;DHT22;19226;51.600;8.034;2023-10-31T15:56:52;14.30;99.90
32877;DHT22;19226;51.600;8.034;2023-10-31T15:59:37;14.30;99.90
32877;DHT22;19226;51.600;8.034;2023-10-31T16:02:22;14.20;99.90
32877;DHT22;19226;51.600;8.034;2023-10-31T16:05:07;14.10;99.90
32877;DHT22;19226;51.600;8.034;2023-10-31T16:07:52;14.00;99.90
32877;DHT22;19226;51.600;8.034;2023-10-31T16:10:37;13.90;99.90
32877;DHT22;19226;51.600;8.034;2023-10-31T16:13:22;13.90;99.90
32877;DHT22;19226;51.600;8.034;2023-10-31T16:16:10;13.90;99.90
32877;DHT22;19226;51.600;8.034;2023-10-31T16:18:54;13.90;99.90
32877;DHT22;19226;51.600;8.034;2023-10-31T16:21:39;13.80;99.90
32877;DHT22;19226;51.600;8.034;2023-10-31T16:24:24;13.80;99.90
32877;DHT22;19226;51.600;8.034;2023-10-31T16:27:08;13.70;99.90
32877;DHT22;19226;51.600;8.034;2023-10-31T16:29:53;13.60;99.90
32877;DHT22;19226;51.600;8.034;2023-10-31T16:32:37;13.60;99.90
32877;DHT22;19226;51.600;8.034;2023-10-31T16:35:22;13.60;99.90
32877;DHT22;19226;51.600;8.034;2023-10-31T16:38:06;13.50;99.90
32877;DHT22;19226;51.600;8.034;2023-10-31T16:40:51;13.50;99.90
32877;DHT22;19226;51.600;8.034;2023-10-31T16:43:35;13.40;99.90
32877;DHT22;19226;51.600;8.034;2023-10-31T16:46:22;13.40;99.90
32877;DHT22;19226;51.600;8.034;2023-10-31T16:49:06;13.30;99.90
32877;DHT22;19226;51.600;8.034;2023-10-31T16:51:53;13.20;99.90
32877;DHT22;19226;51.600;8.034;2023-10-31T16:54:38;13.20;99.90
32877;DHT22;19226;51.600;8.034;2023-10-31T16:57:23;13.10;99.90
32877;DHT22;19226;51.600;8.034;2023-10-31T17:00:08;13.10;99.90
32877;DHT22;19226;51.600;8.034;2023-10-31T17:02:53;13.00;99.90
32877;DHT22;19226;51.600;8.034;2023-10-31T17:05:39;12.90;99.90
32877;DHT22;19226;51.600;8.034;2023-10-31T17:08:23;12.90;99.90
32877;DHT22;19226;51.600;8.034;2023-10-31T17:11:08;12.70;99.90
32877;DHT22;19226;51.600;8.034;2023-10-31T17:13:53;12.60;99.90
32877;DHT22;19226;51.600;8.034;2023-10-31T17:16:37;12.50;99.90
32877;DHT22;19226;51.600;8.034;2023-10-31T17:19:22;12.40;99.90
32877;DHT22;19226;51.600;8.034;2023-10-31T17:22:06;12.30;99.90
32877;DHT22;19226;51.600;8.034;2023-10-31T17:24:51;12.30;99.90